Itapirapua Paulista, Brazil
Current Conditions -  °F | °C
As of 7:00 AM on Sunday 26 Oct 2014 (Local Time) from SBBI Reporting Station
Haze Haze  
Wind Chill: 63°   Ceiling: 400
Heat Index: 63°   Visibility: 3mi
Dew Point: 63°   Wind: 6mph
Humidity: 100%   Direction: 170°S
Pressure: 30.03"   Gusts: NA
Location:  24.57°S, 49.17°W
Report Text: SBBI 260900Z 17005KT 5000 BR BKN004 SCT017 17/17 Q1017
Loading
Personal Weather Stations






























Interactive Weather Map
Tropical Storm Tracking
New forecast layout! Learn more

10-Day Weather Forecast

Advertisements
Track Severe Weather on mobile